createdAt,value
2022-12-01T00:02:02.582Z,102722.03
2022-12-01T00:04:29.643Z,102709.00
2022-12-01T00:06:56.589Z,102686.25
2022-12-01T00:09:42.113Z,102639.16
2022-12-01T00:12:09.032Z,102714.59
2022-12-01T00:14:35.959Z,102721.97
2022-12-01T00:17:05.031Z,102720.13
2022-12-01T00:19:32.033Z,102675.72
2022-12-01T00:21:59.006Z,102718.66
2022-12-01T00:24:25.991Z,102712.91
2022-12-01T00:26:52.918Z,102651.44
2022-12-01T00:29:19.857Z,102689.69
2022-12-01T00:31:46.882Z,102711.72
2022-12-01T00:34:25.149Z,102720.63
2022-12-01T00:36:52.176Z,102710.50
2022-12-01T00:39:19.085Z,102702.81
2022-12-01T00:41:45.999Z,102704.06
2022-12-01T00:44:12.909Z,102720.47
2022-12-01T00:46:39.869Z,102722.69
2022-12-01T00:49:06.849Z,102720.41
2022-12-01T00:51:33.783Z,102664.16
2022-12-01T00:54:00.692Z,102686.69
2022-12-01T00:56:27.686Z,102712.16
2022-12-01T00:58:54.668Z,102696.63
2022-12-01T01:01:22.015Z,102697.38
2022-12-01T01:03:49.331Z,102706.44
2022-12-01T01:06:16.719Z,102706.97
2022-12-01T01:08:45.429Z,102701.03
2022-12-01T01:11:12.433Z,102666.97
2022-12-01T01:13:39.394Z,102681.84
2022-12-01T01:16:15.913Z,102672.50
2022-12-01T01:18:42.905Z,102698.91
2022-12-01T01:21:14.046Z,102710.25
2022-12-01T01:23:41.287Z,102712.47
2022-12-01T01:26:28.873Z,102673.81
2022-12-01T01:29:01.218Z,102702.22
2022-12-01T01:31:31.376Z,102704.47
2022-12-01T01:33:58.449Z,102666.31
2022-12-01T01:36:26.380Z,102711.09
2022-12-01T01:38:54.490Z,102704.97
2022-12-01T01:41:22.631Z,102690.47
2022-12-01T01:44:01.895Z,102702.06
2022-12-01T01:46:31.889Z,102669.16
2022-12-01T01:49:05.055Z,102707.34
2022-12-01T01:51:42.545Z,102668.03
2022-12-01T01:54:34.504Z,102678.88
2022-12-01T01:57:02.540Z,102697.38
2022-12-01T01:59:35.174Z,102688.78
2022-12-01T02:02:06.681Z,102695.84
2022-12-01T02:04:35.987Z,102701.34
2022-12-01T02:07:03.219Z,102702.53
2022-12-01T02:09:30.164Z,102684.69
2022-12-01T02:12:48.383Z,102707.34
2022-12-01T02:15:51.961Z,102668.22
2022-12-01T02:18:36.277Z,102717.78
2022-12-01T02:21:25.222Z,102707.94
2022-12-01T02:24:18.218Z,102716.34
2022-12-01T02:26:59.555Z,102712.72
2022-12-01T02:30:03.558Z,102718.84
2022-12-01T02:32:40.745Z,102721.66
2022-12-01T02:35:42.666Z,102702.06
2022-12-01T02:38:33.971Z,102690.47
2022-12-01T02:41:20.476Z,102709.53
2022-12-01T02:44:08.937Z,102677.03
2022-12-01T02:46:51.877Z,102708.44
2022-12-01T02:49:26.870Z,102684.03
2022-12-01T02:51:56.019Z,102697.47
2022-12-01T02:54:24.802Z,102650.88
2022-12-01T02:56:53.774Z,102699.94
2022-12-01T02:59:21.044Z,102708.22
2022-12-01T03:02:17.581Z,102698.78
2022-12-01T03:05:01.816Z,102699.72
2022-12-01T03:07:39.072Z,102699.94
2022-12-01T03:10:24.711Z,102699.72
2022-12-01T03:13:09.993Z,102705.16
2022-12-01T03:15:54.444Z,102696.50
2022-12-01T03:18:46.899Z,102663.91
2022-12-01T03:21:40.585Z,102695.81
2022-12-01T03:24:13.174Z,102662.91
2022-12-01T03:26:46.092Z,102658.00
2022-12-01T03:29:25.331Z,102680.94
2022-12-01T03:31:57.130Z,102643.41
2022-12-01T03:34:37.233Z,102690.00
2022-12-01T03:37:18.141Z,102693.19
2022-12-01T03:39:48.687Z,102690.28
2022-12-01T03:42:41.403Z,102686.31
2022-12-01T03:45:15.511Z,102678.34
2022-12-01T03:47:42.646Z,102649.91
2022-12-01T03:50:14.192Z,102673.41
2022-12-01T03:53:00.902Z,102644.00
2022-12-01T03:55:30.800Z,102685.44
2022-12-01T03:58:03.704Z,102562.25
2022-12-01T04:00:31.575Z,102661.53
2022-12-01T04:03:02.231Z,102679.66
2022-12-01T04:05:29.295Z,102643.03
2022-12-01T04:07:56.425Z,102694.81
2022-12-01T04:10:23.639Z,102691.41
2022-12-01T04:12:50.631Z,102689.97
2022-12-01T04:15:17.670Z,102681.78
2022-12-01T04:17:45.198Z,102691.78
2022-12-01T04:20:14.608Z,102685.03
2022-12-01T04:22:42.162Z,102692.34
2022-12-01T04:25:09.939Z,102683.44
2022-12-01T04:27:37.444Z,102700.16
2022-12-01T04:30:07.908Z,102691.28
2022-12-01T04:32:42.859Z,102691.03
2022-12-01T04:35:11.764Z,102684.94
2022-12-01T04:37:39.444Z,102673.06
2022-12-01T04:40:07.095Z,102693.75
2022-12-01T04:42:34.056Z,102674.47
2022-12-01T04:45:01.210Z,102583.97
2022-12-01T04:47:28.157Z,102688.75
2022-12-01T04:49:55.197Z,102688.34
2022-12-01T04:52:22.138Z,102691.09
2022-12-01T04:54:49.043Z,102709.81
2022-12-01T04:57:15.940Z,102660.59
2022-12-01T04:59:42.880Z,102653.47
2022-12-01T05:02:09.882Z,102682.91
2022-12-01T05:04:38.891Z,102694.03
2022-12-01T05:07:05.947Z,102685.16
2022-12-01T05:09:32.961Z,102689.22
2022-12-01T05:11:59.869Z,102701.94
2022-12-01T05:14:26.862Z,102704.22
2022-12-01T05:16:55.177Z,102705.81
2022-12-01T05:19:40.591Z,102670.31
2022-12-01T05:22:07.630Z,102706.94
2022-12-01T05:24:34.540Z,102703.28
2022-12-01T05:27:01.488Z,102703.28
2022-12-01T05:29:28.416Z,102698.50
2022-12-01T05:31:55.466Z,102697.72
2022-12-01T05:34:22.551Z,102711.59
2022-12-01T05:36:49.483Z,102702.78
2022-12-01T05:39:16.501Z,102695.00
2022-12-01T05:41:43.415Z,102583.59
2022-12-01T05:44:10.362Z,102712.75
2022-12-01T05:46:37.304Z,102710.94
2022-12-01T05:49:04.297Z,102710.50
2022-12-01T05:51:31.280Z,102687.22
2022-12-01T05:53:59.879Z,102730.72
2022-12-01T05:56:26.852Z,102688.22
2022-12-01T05:58:53.812Z,102709.38
2022-12-01T06:01:20.803Z,102730.72
2022-12-01T06:03:47.827Z,102730.25
2022-12-01T06:06:14.800Z,102724.78
2022-12-01T06:08:41.719Z,102725.94
2022-12-01T06:11:08.629Z,102676.91
2022-12-01T06:13:36.616Z,102735.09
2022-12-01T06:16:05.946Z,102716.63
2022-12-01T06:18:36.166Z,102737.91
2022-12-01T06:21:06.160Z,102721.44
2022-12-01T06:23:34.364Z,102699.22
2022-12-01T06:26:01.678Z,102730.47
2022-12-01T06:28:28.640Z,102735.22
2022-12-01T06:31:02.521Z,102746.16
2022-12-01T06:33:31.586Z,102738.13
2022-12-01T06:36:00.091Z,102735.13
2022-12-01T06:38:30.439Z,102690.50
2022-12-01T06:40:57.636Z,102739.09
2022-12-01T06:43:24.572Z,102740.38
2022-12-01T06:45:55.164Z,102734.22
2022-12-01T06:48:24.839Z,102729.81
2022-12-01T06:50:51.788Z,102734.50
2022-12-01T06:53:18.742Z,102756.56
2022-12-01T06:55:45.679Z,102750.06
2022-12-01T06:58:12.749Z,102748.69
2022-12-01T07:00:39.900Z,102748.63
2022-12-01T07:03:06.839Z,102723.38
2022-12-01T07:05:33.820Z,102741.38
2022-12-01T07:08:01.549Z,102728.84
2022-12-01T07:10:28.678Z,102722.38
2022-12-01T07:12:58.559Z,102719.09
2022-12-01T07:15:25.605Z,102725.91
2022-12-01T07:17:52.503Z,102734.00
2022-12-01T07:20:19.454Z,102718.19
2022-12-01T07:22:46.437Z,102739.03
2022-12-01T07:25:13.479Z,102736.75
2022-12-01T07:27:40.435Z,102732.63
2022-12-01T07:30:07.997Z,102693.06
2022-12-01T07:32:34.918Z,102740.50
2022-12-01T07:35:01.844Z,102612.38
2022-12-01T07:37:30.425Z,102735.09
2022-12-01T07:39:57.385Z,102733.72
2022-12-01T07:42:24.379Z,102719.94
2022-12-01T07:44:51.558Z,102735.28
2022-12-01T07:47:19.090Z,102612.22
2022-12-01T07:49:46.026Z,102696.63
2022-12-01T07:52:12.987Z,102750.16
2022-12-01T07:54:39.976Z,102729.50
2022-12-01T07:57:06.977Z,102750.78
2022-12-01T07:59:33.933Z,102739.56
2022-12-01T08:02:00.908Z,102740.50
2022-12-01T08:04:27.954Z,102744.53
2022-12-01T08:06:54.928Z,102746.75
2022-12-01T08:09:21.937Z,102729.38
2022-12-01T08:11:48.871Z,102741.47
2022-12-01T08:14:15.903Z,102742.59
2022-12-01T08:16:42.813Z,102697.53
2022-12-01T08:19:12.714Z,102722.13
2022-12-01T08:21:39.712Z,102704.66
2022-12-01T08:24:07.040Z,102737.34
2022-12-01T08:26:33.989Z,102730.75
2022-12-01T08:29:01.124Z,102705.94
2022-12-01T08:31:33.213Z,102733.88
2022-12-01T08:34:00.237Z,102687.81
2022-12-01T08:36:27.395Z,102723.91
2022-12-01T08:38:55.754Z,102714.31
2022-12-01T08:41:24.314Z,102706.06
2022-12-01T08:43:59.601Z,102714.19
2022-12-01T08:46:29.362Z,102728.19
2022-12-01T08:48:57.897Z,102707.75
2022-12-01T08:51:25.719Z,102722.41
2022-12-01T08:53:53.130Z,102723.91
2022-12-01T08:56:24.198Z,102729.88
2022-12-01T08:58:51.838Z,102721.84
2022-12-01T09:01:19.589Z,102718.84
2022-12-01T09:03:47.336Z,102719.50
2022-12-01T09:06:20.300Z,102721.44
2022-12-01T09:08:47.638Z,102709.00
2022-12-01T09:11:18.794Z,102686.00
2022-12-01T09:13:52.971Z,102705.91
2022-12-01T09:16:22.005Z,102710.97
2022-12-01T09:18:49.341Z,102671.34
2022-12-01T09:21:22.045Z,102704.59
2022-12-01T09:23:49.805Z,102604.00
2022-12-01T09:26:19.129Z,102709.72
2022-12-01T09:28:47.305Z,102703.72
2022-12-01T09:31:16.440Z,102660.25
2022-12-01T09:33:43.397Z,102689.25
2022-12-01T09:36:11.273Z,102698.41
2022-12-01T09:38:39.368Z,102693.75
2022-12-01T09:41:18.588Z,102693.03
2022-12-01T09:44:15.290Z,102700.63
2022-12-01T09:46:58.972Z,102671.06
2022-12-01T09:49:38.247Z,102686.78
2022-12-01T09:52:05.629Z,102640.63
2022-12-01T09:54:32.651Z,102694.16
2022-12-01T09:57:00.416Z,102687.38
2022-12-01T09:59:37.808Z,102689.59
2022-12-01T10:02:34.095Z,102689.25
2022-12-01T10:05:05.583Z,102693.03
2022-12-01T10:07:56.028Z,102695.41
2022-12-01T10:10:31.432Z,102670.06
2022-12-01T10:12:58.628Z,102694.50
2022-12-01T10:15:45.765Z,102699.56
2022-12-01T10:18:15.800Z,102697.63
2022-12-01T10:21:06.207Z,102699.78
2022-12-01T10:23:58.968Z,102691.50
2022-12-01T10:26:43.183Z,102693.88
2022-12-01T10:29:44.972Z,102696.59
2022-12-01T10:32:29.789Z,102689.50
2022-12-01T10:34:58.063Z,102689.56
2022-12-01T10:37:28.715Z,102700.97
2022-12-01T10:39:58.124Z,102695.31
2022-12-01T10:42:42.185Z,102691.50
2022-12-01T10:45:30.555Z,102692.63
2022-12-01T10:48:22.567Z,102689.03
2022-12-01T10:50:55.436Z,102691.66
2022-12-01T10:53:32.404Z,102678.53
2022-12-01T10:56:14.633Z,102682.94
2022-12-01T10:58:53.400Z,102605.22
2022-12-01T11:01:26.475Z,102673.81
2022-12-01T11:04:09.040Z,102688.38
2022-12-01T11:06:40.258Z,102669.53
2022-12-01T11:09:26.515Z,102621.94
2022-12-01T11:12:07.401Z,102672.16
2022-12-01T11:14:44.935Z,102651.47
2022-12-01T11:17:16.390Z,102647.09
2022-12-01T11:19:43.663Z,102669.97
2022-12-01T11:22:28.835Z,102676.13
2022-12-01T11:24:57.418Z,102673.56
2022-12-01T11:27:50.671Z,102671.59
2022-12-01T11:30:26.456Z,102684.97
2022-12-01T11:32:57.100Z,102648.72
2022-12-01T11:35:28.134Z,102678.44
2022-12-01T11:38:28.208Z,102671.16
2022-12-01T11:40:52.599Z,102667.19
2022-12-01T11:43:37.406Z,102630.16
2022-12-01T11:46:06.600Z,102649.00
2022-12-01T11:48:36.487Z,102659.31
2022-12-01T11:51:27.212Z,102633.75
2022-12-01T11:54:23.854Z,102665.47
2022-12-01T11:57:10.665Z,102675.56
2022-12-01T11:59:39.152Z,102652.03
2022-12-01T12:02:23.547Z,102667.59
2022-12-01T12:04:53.498Z,102680.59
2022-12-01T12:07:56.110Z,102687.69
2022-12-01T12:10:41.212Z,102692.00
2022-12-01T12:13:24.101Z,102680.34
2022-12-01T12:16:06.001Z,102697.88
2022-12-01T12:18:51.289Z,102673.72
2022-12-01T12:21:30.570Z,102678.78
2022-12-01T12:24:38.789Z,102701.59
2022-12-01T12:27:27.260Z,102697.63
2022-12-01T12:30:21.604Z,102689.13
2022-12-01T12:33:20.485Z,102687.81
2022-12-01T12:36:06.274Z,102684.06
2022-12-01T12:38:45.079Z,102681.19
2022-12-01T12:41:37.491Z,102639.75
2022-12-01T12:44:35.364Z,102665.09
2022-12-01T12:47:11.764Z,102666.47
2022-12-01T12:49:47.928Z,102675.88
2022-12-01T12:52:23.056Z,102665.31
2022-12-01T12:55:00.793Z,102668.94
2022-12-01T12:57:35.127Z,102680.03
2022-12-01T13:00:14.002Z,102693.94
2022-12-01T13:02:50.779Z,102684.72
2022-12-01T13:05:49.363Z,102687.31
2022-12-01T13:08:21.696Z,102686.53
2022-12-01T13:11:03.956Z,102659.25
2022-12-01T13:13:40.082Z,102685.63
2022-12-01T13:16:13.362Z,102690.31
2022-12-01T13:19:05.054Z,102691.09
2022-12-01T13:21:39.673Z,102650.78
2022-12-01T13:24:08.238Z,102685.31
2022-12-01T13:26:38.192Z,102676.69
2022-12-01T13:29:07.672Z,102683.56
2022-12-01T13:31:49.912Z,102682.66
2022-12-01T13:34:33.603Z,102632.03
2022-12-01T13:37:00.841Z,102673.06
2022-12-01T13:39:35.820Z,102561.84
2022-12-01T13:42:21.482Z,102691.50
2022-12-01T13:45:00.810Z,102683.41
2022-12-01T13:47:48.986Z,102698.44
2022-12-01T13:50:43.907Z,102687.53
2022-12-01T13:53:25.311Z,102687.34
2022-12-01T13:56:07.226Z,102684.00
2022-12-01T13:58:34.097Z,102684.84
2022-12-01T14:01:23.165Z,102685.94
2022-12-01T14:04:02.595Z,102660.88
2022-12-01T14:06:52.625Z,102679.38
2022-12-01T14:09:41.883Z,102668.94
2022-12-01T14:12:11.798Z,102673.59
2022-12-01T14:14:48.799Z,102563.31
2022-12-01T14:17:26.563Z,102673.34
2022-12-01T14:19:55.174Z,102661.66
2022-12-01T14:22:33.316Z,102645.94
2022-12-01T14:25:01.307Z,102661.47
2022-12-01T14:27:43.360Z,102668.78
2022-12-01T14:30:41.303Z,102668.19
2022-12-01T14:33:39.363Z,102669.63
2022-12-01T14:36:21.982Z,102629.09
2022-12-01T14:38:52.640Z,102637.47
2022-12-01T14:41:25.893Z,102661.19
2022-12-01T14:44:03.839Z,102652.53
2022-12-01T14:46:53.747Z,102658.03
2022-12-01T14:49:25.875Z,102656.72
2022-12-01T14:52:04.599Z,102650.84
2022-12-01T14:54:39.384Z,102632.84
2022-12-01T14:57:11.117Z,102638.44
2022-12-01T14:59:41.027Z,102649.31
2022-12-01T15:02:13.601Z,102643.75
2022-12-01T15:05:06.595Z,102656.53
2022-12-01T15:07:42.537Z,102648.56
2022-12-01T15:10:23.153Z,102647.59
2022-12-01T15:12:51.341Z,102641.34
2022-12-01T15:15:25.058Z,102644.28
2022-12-01T15:17:55.554Z,102647.72
2022-12-01T15:20:42.399Z,102612.81
2022-12-01T15:23:17.235Z,102622.97
2022-12-01T15:25:47.381Z,102639.50
2022-12-01T15:28:17.735Z,102642.66
2022-12-01T15:30:49.053Z,102565.84
2022-12-01T15:33:27.001Z,102637.19
2022-12-01T15:36:29.528Z,102660.50
2022-12-01T15:39:03.589Z,102649.78
2022-12-01T15:41:35.819Z,102658.50
2022-12-01T15:44:05.540Z,102578.00
2022-12-01T15:46:37.330Z,102650.50
2022-12-01T15:49:32.968Z,102648.22
2022-12-01T15:52:12.709Z,102645.81
2022-12-01T15:54:39.989Z,102640.34
2022-12-01T15:57:07.405Z,102649.25
2022-12-01T15:59:37.248Z,102648.72
2022-12-01T16:02:39.805Z,102644.91
2022-12-01T16:05:18.834Z,102618.59
2022-12-01T16:08:12.531Z,102632.69
2022-12-01T16:10:36.930Z,102651.88
2022-12-01T16:13:37.885Z,102660.66
2022-12-01T16:16:44.016Z,102646.38
2022-12-01T16:19:12.258Z,102643.25
2022-12-01T16:21:50.078Z,102645.44
2022-12-01T16:24:21.017Z,102648.38
2022-12-01T16:26:51.051Z,102649.81
2022-12-01T16:29:21.088Z,102652.31
2022-12-01T16:32:18.807Z,102624.78
2022-12-01T16:34:52.289Z,102641.19
2022-12-01T16:37:21.642Z,102652.63
2022-12-01T16:39:49.152Z,102646.78
2022-12-01T16:42:21.167Z,102649.00
2022-12-01T16:44:49.888Z,102639.13
2022-12-01T16:47:23.160Z,102613.50
2022-12-01T16:49:52.060Z,102637.22
2022-12-01T16:52:43.617Z,102636.41
2022-12-01T16:55:19.271Z,102645.06
2022-12-01T16:57:46.235Z,102626.41
2022-12-01T17:00:13.849Z,102635.97
2022-12-01T17:02:40.835Z,102639.63
2022-12-01T17:05:45.423Z,102634.06
2022-12-01T17:08:12.633Z,102635.31
2022-12-01T17:10:41.477Z,102635.06
2022-12-01T17:13:08.746Z,102633.47
2022-12-01T17:15:35.882Z,102628.22
2022-12-01T17:18:02.911Z,102643.06
2022-12-01T17:20:29.935Z,102630.44
2022-12-01T17:22:56.955Z,102611.00
2022-12-01T17:25:25.344Z,102630.94
2022-12-01T17:27:52.375Z,102611.91
2022-12-01T17:30:19.494Z,102634.16
2022-12-01T17:32:49.236Z,102639.47
2022-12-01T17:35:16.830Z,102630.66
2022-12-01T17:37:45.163Z,102631.56
2022-12-01T17:40:15.942Z,102629.13
2022-12-01T17:42:49.973Z,102597.59
2022-12-01T17:45:18.919Z,102628.66
2022-12-01T17:47:46.231Z,102600.72
2022-12-01T17:50:13.306Z,102631.47
2022-12-01T17:52:40.467Z,102613.00
2022-12-01T17:55:09.443Z,102630.09
2022-12-01T17:57:36.529Z,102637.75
2022-12-01T18:00:05.956Z,102587.31
2022-12-01T18:02:36.846Z,102624.31
2022-12-01T18:05:04.186Z,102631.91
2022-12-01T18:07:31.351Z,102612.34
2022-12-01T18:09:58.380Z,102625.03
2022-12-01T18:12:25.383Z,102605.06
2022-12-01T18:14:52.618Z,102626.56
2022-12-01T18:17:19.949Z,102622.41
2022-12-01T18:19:47.067Z,102634.22
2022-12-01T18:22:14.054Z,102631.28
2022-12-01T18:24:41.047Z,102620.38
2022-12-01T18:27:08.027Z,102600.34
2022-12-01T18:29:35.424Z,102513.97
2022-12-01T18:32:02.465Z,102638.25
2022-12-01T18:34:32.506Z,102579.84
2022-12-01T18:37:01.695Z,102636.22
2022-12-01T18:39:29.340Z,102621.22
2022-12-01T18:41:56.444Z,102631.88
2022-12-01T18:44:23.710Z,102607.56
2022-12-01T18:46:50.880Z,102638.25
2022-12-01T18:49:18.100Z,102616.03
2022-12-01T18:51:45.224Z,102604.53
2022-12-01T18:54:16.628Z,102648.63
2022-12-01T18:56:43.705Z,102645.59
2022-12-01T18:59:12.686Z,102653.88
2022-12-01T19:01:43.890Z,102648.34
2022-12-01T19:04:11.809Z,102636.13
2022-12-01T19:06:40.118Z,102652.47
2022-12-01T19:09:09.480Z,102649.34
2022-12-01T19:11:37.295Z,102608.47
2022-12-01T19:14:05.015Z,102643.06
2022-12-01T19:16:32.327Z,102653.75
2022-12-01T19:19:01.576Z,102654.88
2022-12-01T19:21:28.696Z,102658.31
2022-12-01T19:23:56.290Z,102647.41
2022-12-01T19:26:25.643Z,102666.59
2022-12-01T19:28:52.847Z,102671.41
2022-12-01T19:31:24.463Z,102668.41
2022-12-01T19:33:53.511Z,102661.13
2022-12-01T19:36:23.252Z,102620.34
2022-12-01T19:38:51.152Z,102656.31
2022-12-01T19:41:24.262Z,102645.53
2022-12-01T19:43:53.497Z,102675.00
2022-12-01T19:46:23.509Z,102671.84
2022-12-01T19:49:00.653Z,102666.53
2022-12-01T19:51:30.998Z,102657.84
2022-12-01T19:53:59.461Z,102661.47
2022-12-01T19:56:27.756Z,102675.00
2022-12-01T19:58:54.919Z,102624.75
2022-12-01T20:01:22.085Z,102652.84
2022-12-01T20:03:51.019Z,102661.44
2022-12-01T20:06:21.423Z,102629.72
2022-12-01T20:08:48.603Z,102651.94
2022-12-01T20:11:16.085Z,102649.22
2022-12-01T20:13:45.082Z,102646.00
2022-12-01T20:16:18.321Z,102532.34
2022-12-01T20:18:45.653Z,102640.91
2022-12-01T20:21:17.402Z,102637.63
2022-12-01T20:23:47.256Z,102654.06
2022-12-01T20:26:16.189Z,102658.31
2022-12-01T20:28:45.637Z,102655.88
2022-12-01T20:31:19.504Z,102660.72
2022-12-01T20:33:46.667Z,102659.81
2022-12-01T20:36:14.700Z,102665.03
2022-12-01T20:38:41.927Z,102663.03
2022-12-01T20:41:09.990Z,102673.94
2022-12-01T20:43:37.122Z,102668.06
2022-12-01T20:46:04.998Z,102649.03
2022-12-01T20:48:32.618Z,102666.59
2022-12-01T20:51:01.161Z,102568.66
2022-12-01T20:53:28.521Z,102669.03
2022-12-01T20:55:55.934Z,102667.44
2022-12-01T20:58:23.164Z,102643.00
2022-12-01T21:00:50.375Z,102635.31
2022-12-01T21:03:17.359Z,102683.41
2022-12-01T21:05:44.658Z,102669.88
2022-12-01T21:08:13.436Z,102686.53
2022-12-01T21:10:44.917Z,102687.50
2022-12-01T21:13:44.422Z,102697.56
2022-12-01T21:16:26.928Z,102670.00
2022-12-01T21:19:00.110Z,102638.53
2022-12-01T21:21:28.335Z,102686.09
2022-12-01T21:24:02.960Z,102643.22
2022-12-01T21:26:30.140Z,102679.31
2022-12-01T21:29:00.008Z,102677.44
2022-12-01T21:31:27.145Z,102675.50
2022-12-01T21:33:55.369Z,102668.19
2022-12-01T21:36:24.124Z,102652.44
2022-12-01T21:38:55.502Z,102660.50
2022-12-01T21:41:30.303Z,102623.31
2022-12-01T21:44:05.310Z,102659.53
2022-12-01T21:46:32.302Z,102656.56
2022-12-01T21:49:01.454Z,102637.66
2022-12-01T21:51:30.659Z,102645.09
2022-12-01T21:53:58.150Z,102653.03
2022-12-01T21:56:29.260Z,102653.50
2022-12-01T21:58:59.551Z,102650.50
2022-12-01T22:01:29.754Z,102610.44
2022-12-01T22:04:02.392Z,102653.88
2022-12-01T22:06:40.994Z,102648.38
2022-12-01T22:09:31.971Z,102631.41
2022-12-01T22:12:20.939Z,102653.63
2022-12-01T22:14:48.995Z,102649.03
2022-12-01T22:17:20.101Z,102659.63
2022-12-01T22:19:57.637Z,102666.63
2022-12-01T22:22:29.453Z,102647.66
2022-12-01T22:25:11.734Z,102661.03
2022-12-01T22:27:40.323Z,102659.16
2022-12-01T22:30:09.967Z,102658.16
2022-12-01T22:32:58.535Z,102657.84
2022-12-01T22:35:33.088Z,102651.63
2022-12-01T22:38:26.112Z,102659.41
2022-12-01T22:41:12.251Z,102658.69
2022-12-01T22:43:52.199Z,102629.44
2022-12-01T22:46:32.553Z,102651.75
2022-12-01T22:49:11.478Z,102656.50
2022-12-01T22:51:51.771Z,102635.13
2022-12-01T22:54:26.612Z,102652.16
2022-12-01T22:57:02.487Z,102661.06
2022-12-01T22:59:37.556Z,102652.09
2022-12-01T23:02:24.983Z,102657.16
2022-12-01T23:05:13.856Z,102651.72
2022-12-01T23:07:42.980Z,102648.53
2022-12-01T23:10:17.528Z,102648.19
2022-12-01T23:12:46.599Z,102639.72
2022-12-01T23:15:37.517Z,102654.13
2022-12-01T23:18:20.896Z,102651.63
2022-12-01T23:20:50.936Z,102644.19
2022-12-01T23:23:20.160Z,102581.53
2022-12-01T23:25:50.346Z,102658.13
2022-12-01T23:28:17.934Z,102643.22
2022-12-01T23:30:46.357Z,102650.91
2022-12-01T23:33:28.449Z,102638.81
2022-12-01T23:36:18.926Z,102636.44
2022-12-01T23:38:49.082Z,102618.97
2022-12-01T23:41:33.040Z,102642.41
2022-12-01T23:44:32.280Z,102642.09
2022-12-01T23:46:59.678Z,102640.09
2022-12-01T23:49:31.529Z,102627.38
2022-12-01T23:52:02.319Z,102644.41
2022-12-01T23:54:34.974Z,102641.63
2022-12-01T23:57:04.757Z,102639.31
2022-12-01T23:59:32.258Z,102588.44
